createdAt,value
2018-09-27T00:00:50.723Z,99.90
2018-09-27T00:03:23.735Z,99.90
2018-09-27T00:05:56.758Z,99.90
2018-09-27T00:08:29.978Z,99.90
2018-09-27T00:11:04.139Z,99.90
2018-09-27T00:13:37.790Z,99.90
2018-09-27T00:16:12.366Z,99.90
2018-09-27T00:18:45.990Z,99.90
2018-09-27T00:21:20.394Z,99.90
2018-09-27T00:23:53.673Z,99.90
2018-09-27T00:26:27.305Z,99.90
2018-09-27T00:29:00.521Z,99.90
2018-09-27T00:31:33.275Z,99.90
2018-09-27T00:34:06.907Z,99.90
2018-09-27T00:36:40.625Z,99.90
2018-09-27T00:39:15.674Z,99.90
2018-09-27T00:41:49.023Z,99.90
2018-09-27T00:44:21.886Z,99.90
2018-09-27T00:46:56.350Z,99.90
2018-09-27T00:49:29.789Z,99.90
2018-09-27T00:52:02.449Z,99.90
2018-09-27T00:54:35.891Z,99.90
2018-09-27T00:57:09.493Z,99.90
2018-09-27T00:59:42.776Z,99.90
2018-09-27T01:02:15.656Z,99.90
2018-09-27T01:04:49.664Z,99.90
2018-09-27T01:07:22.874Z,99.90
2018-09-27T01:09:55.645Z,99.90
2018-09-27T01:12:29.347Z,99.90
2018-09-27T01:15:02.461Z,99.90
2018-09-27T01:17:35.291Z,99.90
2018-09-27T01:20:08.017Z,99.90
2018-09-27T01:22:41.601Z,99.90
2018-09-27T01:25:17.053Z,99.90
2018-09-27T01:27:51.094Z,99.90
2018-09-27T01:30:24.150Z,99.90
2018-09-27T01:32:57.151Z,99.90
2018-09-27T01:35:30.936Z,99.90
2018-09-27T01:38:04.091Z,99.90
2018-09-27T01:40:36.413Z,99.90
2018-09-27T01:43:05.130Z,99.90
2018-09-27T01:45:33.840Z,99.90
2018-09-27T01:48:02.508Z,99.90
2018-09-27T01:50:31.235Z,99.90
2018-09-27T01:52:59.922Z,99.90
2018-09-27T01:55:28.682Z,99.90
2018-09-27T01:57:57.642Z,99.90
2018-09-27T02:03:19.772Z,99.90
2018-09-27T02:05:48.434Z,99.90
2018-09-27T02:08:17.212Z,99.90
2018-09-27T02:10:45.931Z,99.90
2018-09-27T02:13:14.605Z,99.90
2018-09-27T02:15:43.305Z,99.90
2018-09-27T02:18:11.987Z,99.90
2018-09-27T02:20:40.768Z,99.90
2018-09-27T02:23:09.457Z,99.90
2018-09-27T02:25:38.174Z,99.90
2018-09-27T02:28:06.999Z,99.90
2018-09-27T02:30:35.802Z,99.90
2018-09-27T02:33:04.582Z,99.90
2018-09-27T02:35:33.299Z,99.90
2018-09-27T02:38:01.960Z,99.90
2018-09-27T02:40:30.689Z,99.90
2018-09-27T02:42:59.351Z,99.90
2018-09-27T02:45:28.045Z,99.90
2018-09-27T02:47:56.767Z,99.90
2018-09-27T02:50:26.342Z,99.90
2018-09-27T02:52:55.051Z,99.90
2018-09-27T02:55:23.806Z,99.90
2018-09-27T02:57:52.570Z,99.90
2018-09-27T03:00:21.260Z,99.90
2018-09-27T03:02:49.970Z,99.90
2018-09-27T03:05:18.661Z,99.90
2018-09-27T03:07:47.371Z,99.90
2018-09-27T03:10:16.072Z,99.90
2018-09-27T03:12:44.765Z,99.90
2018-09-27T03:15:13.507Z,99.90
2018-09-27T03:17:48.530Z,99.90
2018-09-27T03:20:17.301Z,99.90
2018-09-27T03:22:45.979Z,99.90
2018-09-27T03:25:14.721Z,99.90
2018-09-27T03:27:43.445Z,99.90
2018-09-27T03:30:12.169Z,99.90
2018-09-27T03:32:40.982Z,99.90
2018-09-27T03:35:09.698Z,99.90
2018-09-27T03:37:38.398Z,99.90
2018-09-27T03:40:07.801Z,99.90
2018-09-27T03:42:36.550Z,99.90
2018-09-27T03:45:05.324Z,99.90
2018-09-27T03:47:34.041Z,99.90
2018-09-27T03:50:02.779Z,99.90
2018-09-27T03:52:31.470Z,99.90
2018-09-27T03:55:00.218Z,99.90
2018-09-27T03:57:28.909Z,99.90
2018-09-27T03:59:57.600Z,99.90
2018-09-27T04:02:26.328Z,99.90
2018-09-27T04:04:59.454Z,99.90
2018-09-27T04:07:28.186Z,99.90
2018-09-27T04:09:56.902Z,99.90
2018-09-27T04:12:25.646Z,99.90
2018-09-27T04:14:54.424Z,99.90
2018-09-27T04:17:23.121Z,99.90
2018-09-27T04:19:51.803Z,99.90
2018-09-27T04:22:20.544Z,99.90
2018-09-27T04:24:49.261Z,99.90
2018-09-27T04:27:17.984Z,99.90
2018-09-27T04:29:46.723Z,99.90
2018-09-27T04:32:15.451Z,99.90
2018-09-27T04:34:44.161Z,99.90
2018-09-27T04:37:13.332Z,99.90
2018-09-27T04:39:42.188Z,99.90
2018-09-27T04:42:11.005Z,99.90
2018-09-27T04:44:50.732Z,99.90
2018-09-27T04:47:29.673Z,99.90
2018-09-27T04:50:08.136Z,99.90
2018-09-27T04:52:42.660Z,99.90
2018-09-27T04:55:18.649Z,99.90
2018-09-27T04:57:50.490Z,99.90
2018-09-27T05:00:28.460Z,99.90
2018-09-27T05:03:03.037Z,99.90
2018-09-27T05:05:45.798Z,99.90
2018-09-27T05:08:28.472Z,99.90
2018-09-27T05:11:06.069Z,99.90
2018-09-27T05:13:40.689Z,99.90
2018-09-27T05:16:20.971Z,99.90
2018-09-27T05:19:03.847Z,99.90
2018-09-27T05:21:49.044Z,99.90
2018-09-27T05:24:30.473Z,99.90
2018-09-27T05:27:10.669Z,99.90
2018-09-27T05:30:06.989Z,99.90
2018-09-27T05:32:57.702Z,99.90
2018-09-27T05:35:44.117Z,99.90
2018-09-27T05:38:24.614Z,99.90
2018-09-27T05:41:08.562Z,99.90
2018-09-27T05:43:58.805Z,99.90
2018-09-27T05:46:44.350Z,99.90
2018-09-27T05:52:59.739Z,99.90
2018-09-27T05:58:38.871Z,99.90
2018-09-27T06:07:20.014Z,99.90
2018-09-27T06:09:57.719Z,99.90
2018-09-27T06:12:34.496Z,99.90
2018-09-27T06:15:12.461Z,99.90
2018-09-27T06:17:55.828Z,99.90
2018-09-27T06:20:37.368Z,99.90
2018-09-27T06:23:17.008Z,99.90
2018-09-27T06:28:58.309Z,99.90
2018-09-27T06:31:29.403Z,99.90
2018-09-27T06:34:03.565Z,99.90
2018-09-27T06:36:39.332Z,99.90
2018-09-27T06:39:51.949Z,99.90
2018-09-27T06:43:02.324Z,99.90
2018-09-27T06:46:20.151Z,99.90
2018-09-27T06:48:50.625Z,99.90
2018-09-27T06:51:22.614Z,99.90
2018-09-27T06:54:00.712Z,99.90
2018-09-27T06:56:32.819Z,99.90
2018-09-27T06:59:02.728Z,99.90
2018-09-27T07:02:08.476Z,99.90
2018-09-27T07:04:47.067Z,99.90
2018-09-27T07:07:20.031Z,99.90
2018-09-27T07:10:03.482Z,99.90
2018-09-27T07:15:53.536Z,99.90
2018-09-27T07:18:33.638Z,99.90
2018-09-27T07:21:05.452Z,99.90
2018-09-27T07:23:37.522Z,99.90
2018-09-27T07:26:12.149Z,99.90
2018-09-27T07:28:55.396Z,99.90
2018-09-27T07:32:08.136Z,99.90
2018-09-27T07:34:40.718Z,99.90
2018-09-27T07:43:00.750Z,99.90
2018-09-27T08:00:01.397Z,99.90
2018-09-27T08:02:33.433Z,99.90
2018-09-27T08:05:03.297Z,99.90
2018-09-27T08:07:36.520Z,99.90
2018-09-27T08:10:10.715Z,99.90
2018-09-27T08:12:40.694Z,99.90
2018-09-27T08:15:13.964Z,99.90
2018-09-27T08:17:49.379Z,99.90
2018-09-27T08:20:18.413Z,99.90
2018-09-27T08:22:47.842Z,99.90
2018-09-27T08:32:58.047Z,99.90
2018-09-27T08:35:38.263Z,99.90
2018-09-27T08:47:32.827Z,99.90
2018-09-27T08:55:21.088Z,99.90
2018-09-27T09:07:44.134Z,99.90
2018-09-27T09:10:58.687Z,99.90
2018-09-27T09:20:07.402Z,99.90
2018-09-27T09:28:01.898Z,99.90
2018-09-27T09:37:56.565Z,99.90
2018-09-27T09:47:05.275Z,99.90
2018-09-27T09:54:17.232Z,99.90
2018-09-27T09:57:10.893Z,99.90
2018-09-27T10:00:07.168Z,99.90
2018-09-27T10:02:42.264Z,99.90
2018-09-27T10:05:13.805Z,99.90
2018-09-27T10:07:44.417Z,99.90
2018-09-27T10:10:14.918Z,99.90
2018-09-27T10:12:44.805Z,99.90
2018-09-27T10:15:14.190Z,99.90
2018-09-27T10:17:44.036Z,99.90
2018-09-27T10:20:13.994Z,99.90
2018-09-27T10:22:43.040Z,99.90
2018-09-27T10:25:12.314Z,99.90
2018-09-27T10:27:42.793Z,99.90
2018-09-27T10:30:12.430Z,99.90
2018-09-27T10:32:42.875Z,99.90
2018-09-27T10:35:12.654Z,99.90
2018-09-27T10:37:41.633Z,99.90
2018-09-27T10:40:10.998Z,99.90
2018-09-27T10:42:40.712Z,99.90
2018-09-27T10:45:09.856Z,99.90
2018-09-27T10:47:39.829Z,99.90
2018-09-27T10:50:08.791Z,99.90
2018-09-27T10:52:37.786Z,99.90
2018-09-27T10:55:07.135Z,99.90
2018-09-27T10:57:37.820Z,99.90
2018-09-27T11:00:08.161Z,99.90
2018-09-27T11:02:37.816Z,99.90
2018-09-27T11:05:06.970Z,99.90
2018-09-27T11:07:36.614Z,99.90
2018-09-27T11:10:06.230Z,99.90
2018-09-27T11:12:35.596Z,99.90
2018-09-27T11:15:05.313Z,99.90
2018-09-27T11:17:34.263Z,99.90
2018-09-27T11:20:04.074Z,99.90
2018-09-27T11:22:33.536Z,99.90
2018-09-27T11:25:03.405Z,99.90
2018-09-27T11:27:33.677Z,99.90
2018-09-27T11:30:08.156Z,99.90
2018-09-27T11:32:43.141Z,99.90
2018-09-27T11:35:12.305Z,99.90
2018-09-27T11:37:41.940Z,99.90
2018-09-27T11:40:11.757Z,99.90
2018-09-27T11:42:42.009Z,99.90
2018-09-27T11:45:12.262Z,99.90
2018-09-27T11:47:41.506Z,99.90
2018-09-27T11:50:10.688Z,99.90
2018-09-27T11:52:40.471Z,99.90
2018-09-27T11:55:09.993Z,99.90
2018-09-27T11:57:39.369Z,99.90
2018-09-27T12:00:10.147Z,99.90
2018-09-27T12:02:39.467Z,99.90
2018-09-27T12:05:08.958Z,99.90
2018-09-27T12:07:38.655Z,99.90
2018-09-27T12:10:07.738Z,99.90
2018-09-27T12:12:36.566Z,99.90
2018-09-27T12:15:05.810Z,99.90
2018-09-27T12:17:34.652Z,99.90
2018-09-27T12:20:03.485Z,99.90
2018-09-27T12:22:32.220Z,99.90
2018-09-27T12:25:01.142Z,99.90
2018-09-27T12:27:30.453Z,94.90
2018-09-27T12:29:59.262Z,85.70
2018-09-27T12:32:27.972Z,75.20
2018-09-27T12:34:56.705Z,63.50
2018-09-27T12:37:25.490Z,59.30
2018-09-27T12:39:54.236Z,56.80
2018-09-27T12:42:23.064Z,54.40
2018-09-27T12:44:51.893Z,49.60
2018-09-27T12:47:20.766Z,44.50
2018-09-27T12:49:49.568Z,41.20
2018-09-27T12:52:18.640Z,43.70
2018-09-27T12:54:47.183Z,45.70
2018-09-27T12:57:15.925Z,45.20
2018-09-27T12:59:44.775Z,43.20
2018-09-27T13:02:13.655Z,44.20
2018-09-27T13:04:42.307Z,44.00
2018-09-27T13:07:11.053Z,40.70
2018-09-27T13:09:40.047Z,39.00
2018-09-27T13:12:08.717Z,36.80
2018-09-27T13:14:37.506Z,36.10
2018-09-27T13:17:06.551Z,33.80
2018-09-27T13:19:35.809Z,33.30
2018-09-27T13:22:05.586Z,32.40
2018-09-27T13:24:34.483Z,31.90
2018-09-27T13:27:03.380Z,31.20
2018-09-27T13:29:32.121Z,31.40
2018-09-27T13:32:01.019Z,30.20
2018-09-27T13:34:30.159Z,30.20
2018-09-27T13:36:59.770Z,29.60
2018-09-27T13:39:28.589Z,30.20
2018-09-27T13:41:57.414Z,30.20
2018-09-27T13:44:26.237Z,30.10
2018-09-27T13:46:54.998Z,31.60
2018-09-27T13:49:23.792Z,30.40
2018-09-27T13:51:55.356Z,31.10
2018-09-27T13:54:25.317Z,30.80
2018-09-27T13:56:54.200Z,30.50
2018-09-27T13:59:22.918Z,31.20
2018-09-27T14:01:51.693Z,30.20
2018-09-27T14:04:22.841Z,29.30
2018-09-27T14:06:51.593Z,29.50
2018-09-27T14:09:22.053Z,29.20
2018-09-27T14:11:51.232Z,30.20
2018-09-27T14:14:20.107Z,31.80
2018-09-27T14:16:49.068Z,33.70
2018-09-27T14:19:17.952Z,34.30
2018-09-27T14:21:46.795Z,34.00
2018-09-27T14:24:15.578Z,36.40
2018-09-27T14:26:44.415Z,35.40
2018-09-27T14:29:13.177Z,38.40
2018-09-27T14:31:41.918Z,41.30
2018-09-27T14:34:10.740Z,42.60
2018-09-27T14:36:40.606Z,43.50
2018-09-27T14:39:10.950Z,45.20
2018-09-27T14:41:46.222Z,46.20
2018-09-27T14:44:15.182Z,46.30
2018-09-27T14:46:43.969Z,46.70
2018-09-27T14:49:12.723Z,48.10
2018-09-27T14:51:41.500Z,48.80
2018-09-27T14:54:10.274Z,49.90
2018-09-27T14:56:39.080Z,51.60
2018-09-27T14:59:07.866Z,51.50
2018-09-27T15:01:36.589Z,51.80
2018-09-27T15:04:05.421Z,52.60
2018-09-27T15:06:34.279Z,52.30
2018-09-27T15:09:04.043Z,53.00
2018-09-27T15:11:32.817Z,54.20
2018-09-27T15:14:01.557Z,54.90
2018-09-27T15:16:30.485Z,55.70
2018-09-27T15:18:59.190Z,56.70
2018-09-27T15:21:28.012Z,57.60
2018-09-27T15:23:56.806Z,58.40
2018-09-27T15:26:25.600Z,58.40
2018-09-27T15:28:54.473Z,59.30
2018-09-27T15:31:23.237Z,58.80
2018-09-27T15:33:51.929Z,58.50
2018-09-27T15:36:20.856Z,59.20
2018-09-27T15:38:49.576Z,60.00
2018-09-27T15:41:18.366Z,60.60
2018-09-27T15:43:47.203Z,61.40
2018-09-27T15:46:15.991Z,62.20
2018-09-27T15:48:44.799Z,62.90
2018-09-27T15:51:13.661Z,63.20
2018-09-27T15:53:42.404Z,63.00
2018-09-27T15:56:11.194Z,63.90
2018-09-27T15:58:40.077Z,64.80
2018-09-27T16:01:08.752Z,65.00
2018-09-27T16:03:37.555Z,64.80
2018-09-27T16:06:07.152Z,64.90
2018-09-27T16:08:36.062Z,65.40
2018-09-27T16:11:04.862Z,64.50
2018-09-27T16:13:33.710Z,65.50
2018-09-27T16:16:02.479Z,64.80
2018-09-27T16:18:31.278Z,64.90
2018-09-27T16:21:00.068Z,64.60
2018-09-27T16:23:28.825Z,65.20
2018-09-27T16:25:57.597Z,65.50
2018-09-27T16:28:26.364Z,65.30
2018-09-27T16:30:55.739Z,65.30
2018-09-27T16:33:24.525Z,65.10
2018-09-27T16:35:53.401Z,65.20
2018-09-27T16:38:22.140Z,65.80
2018-09-27T16:40:50.929Z,65.00
2018-09-27T16:43:19.685Z,64.10
2018-09-27T16:45:48.506Z,65.00
2018-09-27T16:48:17.321Z,65.10
2018-09-27T16:50:46.164Z,65.30
2018-09-27T16:53:14.973Z,65.30
2018-09-27T16:55:43.723Z,65.60
2018-09-27T16:58:12.481Z,65.90
2018-09-27T17:00:41.193Z,65.90
2018-09-27T17:03:09.973Z,66.30
2018-09-27T17:05:38.821Z,66.80
2018-09-27T17:08:07.547Z,67.20
2018-09-27T17:10:36.293Z,67.90
2018-09-27T17:13:05.161Z,68.70
2018-09-27T17:15:33.981Z,68.80
2018-09-27T17:18:02.845Z,69.20
2018-09-27T17:20:31.693Z,69.40
2018-09-27T17:23:00.470Z,69.90
2018-09-27T17:25:29.243Z,70.30
2018-09-27T17:27:58.040Z,71.00
2018-09-27T17:30:26.807Z,70.50
2018-09-27T17:32:55.611Z,70.60
2018-09-27T17:35:24.433Z,71.00
2018-09-27T17:37:53.449Z,71.00
2018-09-27T17:40:22.242Z,71.60
2018-09-27T17:42:51.074Z,71.80
2018-09-27T17:45:19.930Z,72.40
2018-09-27T17:47:48.669Z,72.50
2018-09-27T17:50:17.491Z,72.90
2018-09-27T17:52:46.388Z,73.40
2018-09-27T17:55:15.144Z,73.80
2018-09-27T17:57:43.947Z,74.40
2018-09-27T18:00:12.687Z,75.80
2018-09-27T18:02:41.414Z,76.20
2018-09-27T18:05:18.983Z,77.50
2018-09-27T18:07:39.078Z,78.70
2018-09-27T18:10:07.962Z,80.00
2018-09-27T18:12:36.717Z,81.30
2018-09-27T18:15:05.702Z,82.20
2018-09-27T18:17:34.562Z,83.30
2018-09-27T18:20:03.445Z,84.10
2018-09-27T18:22:32.179Z,85.30
2018-09-27T18:25:00.967Z,86.80
2018-09-27T18:27:29.779Z,88.30
2018-09-27T18:29:58.552Z,88.80
2018-09-27T18:32:27.360Z,89.80
2018-09-27T18:34:56.127Z,90.40
2018-09-27T18:37:24.908Z,90.90
2018-09-27T18:39:53.716Z,91.50
2018-09-27T18:42:22.516Z,91.60
2018-09-27T18:44:51.321Z,92.10
2018-09-27T18:47:20.142Z,92.60
2018-09-27T18:49:48.942Z,93.00
2018-09-27T18:52:19.309Z,93.20
2018-09-27T18:54:48.138Z,93.50
2018-09-27T18:57:17.081Z,93.70
2018-09-27T18:59:45.881Z,94.00
2018-09-27T19:02:14.715Z,94.40
2018-09-27T19:04:43.499Z,94.70
2018-09-27T19:07:12.266Z,94.90
2018-09-27T19:09:41.210Z,95.20
2018-09-27T19:12:11.753Z,95.50
2018-09-27T19:14:40.585Z,95.90
2018-09-27T19:17:09.467Z,96.00
2018-09-27T19:19:38.305Z,95.80
2018-09-27T19:22:07.207Z,95.60
2018-09-27T19:24:35.965Z,95.30
2018-09-27T19:27:04.806Z,95.00
2018-09-27T19:29:33.561Z,94.70
2018-09-27T19:32:02.326Z,94.60
2018-09-27T19:34:31.102Z,94.90
2018-09-27T19:36:59.920Z,94.90
2018-09-27T19:39:28.692Z,95.30
2018-09-27T19:41:57.510Z,95.60
2018-09-27T19:44:26.306Z,95.80
2018-09-27T19:46:55.074Z,96.20
2018-09-27T19:49:23.850Z,96.50
2018-09-27T19:51:52.643Z,96.70
2018-09-27T19:54:21.389Z,96.90
2018-09-27T19:56:50.169Z,96.80
2018-09-27T19:59:18.949Z,96.60
2018-09-27T20:01:47.704Z,96.90
2018-09-27T20:04:16.763Z,96.40
2018-09-27T20:06:45.481Z,96.20
2018-09-27T20:09:14.637Z,96.00
2018-09-27T20:11:43.879Z,95.70
2018-09-27T20:14:12.901Z,95.50
2018-09-27T20:16:41.862Z,95.30
2018-09-27T20:19:10.605Z,94.70
2018-09-27T20:21:39.780Z,94.20
2018-09-27T20:24:08.773Z,93.80
2018-09-27T20:26:37.558Z,93.30
2018-09-27T20:29:06.436Z,92.80
2018-09-27T20:31:35.227Z,92.20
2018-09-27T20:34:04.108Z,91.80
2018-09-27T20:36:32.902Z,91.50
2018-09-27T20:39:01.640Z,91.50
2018-09-27T20:41:30.465Z,91.00
2018-09-27T20:43:59.207Z,90.60
2018-09-27T20:46:28.023Z,90.50
2018-09-27T20:48:56.865Z,89.90
2018-09-27T20:51:25.644Z,89.10
2018-09-27T20:53:54.499Z,89.00
2018-09-27T20:56:23.285Z,89.20
2018-09-27T20:58:52.163Z,89.00
2018-09-27T21:01:20.980Z,88.80
2018-09-27T21:03:49.725Z,88.90
2018-09-27T21:06:18.476Z,89.10
2018-09-27T21:08:47.275Z,89.20
2018-09-27T21:11:16.056Z,88.90
2018-09-27T21:13:44.829Z,88.80
2018-09-27T21:16:13.619Z,89.20
2018-09-27T21:18:42.377Z,88.40
2018-09-27T21:21:11.189Z,88.00
2018-09-27T21:23:39.885Z,87.10
2018-09-27T21:26:08.637Z,87.80
2018-09-27T21:28:37.419Z,87.40
2018-09-27T21:31:06.278Z,87.10
2018-09-27T21:33:35.094Z,86.60
2018-09-27T21:36:04.069Z,86.60
2018-09-27T21:38:33.909Z,87.60
2018-09-27T21:41:02.718Z,87.50
2018-09-27T21:43:31.511Z,87.40
2018-09-27T21:46:00.263Z,87.30
2018-09-27T21:48:29.053Z,87.60
2018-09-27T21:50:57.781Z,88.10
2018-09-27T21:53:26.491Z,88.70
2018-09-27T21:55:55.245Z,90.00
2018-09-27T21:58:24.048Z,90.60
2018-09-27T22:00:53.372Z,91.30
2018-09-27T22:03:23.465Z,92.00
2018-09-27T22:05:52.530Z,92.20
2018-09-27T22:08:21.397Z,92.50
2018-09-27T22:10:50.143Z,93.00
2018-09-27T22:13:18.905Z,93.20
2018-09-27T22:15:47.730Z,93.60
2018-09-27T22:18:16.534Z,94.10
2018-09-27T22:20:45.314Z,94.40
2018-09-27T22:23:14.043Z,94.60
2018-09-27T22:25:42.797Z,94.90
2018-09-27T22:28:11.466Z,95.30
2018-09-27T22:30:40.176Z,95.50
2018-09-27T22:33:09.065Z,95.60
2018-09-27T22:35:37.841Z,96.40
2018-09-27T22:38:06.622Z,96.30
2018-09-27T22:40:35.383Z,96.80
2018-09-27T22:43:04.119Z,97.10
2018-09-27T22:45:32.883Z,97.50
2018-09-27T22:48:01.688Z,97.90
2018-09-27T22:50:30.496Z,98.10
2018-09-27T22:52:59.290Z,98.50
2018-09-27T22:55:28.060Z,99.00
2018-09-27T22:57:56.751Z,99.20
2018-09-27T23:00:25.462Z,99.80
2018-09-27T23:02:54.200Z,99.90
2018-09-27T23:05:22.929Z,99.90
2018-09-27T23:07:51.662Z,99.90
2018-09-27T23:10:20.484Z,99.90
2018-09-27T23:12:49.222Z,99.90
2018-09-27T23:15:18.006Z,99.90
2018-09-27T23:17:46.734Z,99.90
2018-09-27T23:20:15.438Z,99.90
2018-09-27T23:22:44.106Z,99.90
2018-09-27T23:25:12.838Z,99.90
2018-09-27T23:27:41.542Z,99.90
2018-09-27T23:30:10.185Z,99.90
2018-09-27T23:32:38.926Z,99.90
2018-09-27T23:35:07.927Z,99.90
2018-09-27T23:37:36.714Z,99.90
2018-09-27T23:40:06.500Z,99.90
2018-09-27T23:42:35.589Z,99.90
2018-09-27T23:45:04.397Z,99.90
2018-09-27T23:47:33.129Z,99.90
2018-09-27T23:50:01.919Z,99.90
2018-09-27T23:52:30.662Z,99.90
2018-09-27T23:54:59.395Z,99.90
2018-09-27T23:57:28.136Z,99.90
2018-09-27T23:59:56.866Z,99.90
